Pacific Titan — WCZ6844 — position and weather

sailwx.info

Track history (hours):
 
Tides and Currents Weather Stations Pressure Air Temp Water Temp Dewpoint Dewpoint Depression Visibility Wind Speed Wind Dir Waves Ship Positions

Pacific Titan

Owner: WESTERN TOWBOAT CO, SEATTLE, WA. More information available from US FCC via Universal Licensing System and Coast Guard Vessel Documentation Center.

Last reported at 2015-Mar-31 12:33 UTC. Time now 2015-Mar-31 12:43 UTC.
Position N 49°14' W 123°38'.

Type: Tow > 200 m length. MMSI: 338855000.

Date/timePositionNaut miles runAvg speedWind from/ knotsBaromVisibWave heightAir tempDewpointWater temp
2015-Mar-31 12:33N 49°14' W 123°38'10 9.6
2015-Mar-31 11:33N 49°20' W 123°48'10 9.6
2015-Mar-31 10:33N 49°26' W 124°01'10 9.5
2015-Mar-31 09:33N 49°31' W 124°13'10 9.6
2015-Mar-31 08:33N 49°35' W 124°26'10 9.5
2015-Mar-31 07:28N 49°42' W 124°39'8 9.1
2015-Mar-31 06:33N 49°47' W 124°49'10 9.8
2015-Mar-31 05:30N 49°54' W 125°01'81 7.3
2015-Mar-30 18:20N 50°38' W 126°48'7 8.1
2015-Mar-30 17:31N 50°42' W 126°56'9 8.6
2015-Mar-30 16:31N 50°46' W 127°08'8 7.9
2015-Mar-30 15:33N 50°51' W 127°17'8 7.8
2015-Mar-30 14:33N 50°56' W 127°26'7 7.3
2015-Mar-30 13:33N 50°60' W 127°36'6 5.7
2015-Mar-30 12:34N 51°04' W 127°42'6 5.9
2015-Mar-30 11:32N 51°08' W 127°49'14 6.5
2015-Mar-30 09:26N 51°22' W 127°53'8 8.9
2015-Mar-30 08:30N 51°30' W 127°52'  
2015-Mar-22 16:22N 51°31' W 127°52'8 8.4
2015-Mar-22 15:24N 51°22' W 127°53'7 8.7
2015-Mar-22 14:33N 51°15' W 127°52'9 8.9
2015-Mar-22 13:33N 51°07' W 127°47'9 9.2
2015-Mar-22 12:33N 51°00' W 127°37'10 9.6
2015-Mar-22 11:33N 50°55' W 127°24'9 9.2
2015-Mar-22 10:33N 50°50' W 127°12'9 8.7
2015-Mar-22 09:33N 50°45' W 127°00'9 7.9
2015-Mar-22 08:28N 50°39' W 126°50'9 8.0
2015-Mar-22 07:21N 50°32' W 126°41'95 7.4
2015-Mar-21 18:28N 49°41' W 124°37'8 6.1
2015-Mar-21 17:10N 49°36' W 124°27'5 8.2
2015-Mar-21 16:31N 49°33' W 124°20'9 7.8
2015-Mar-21 15:26N 49°29' W 124°09'8 8.9
2015-Mar-21 14:33N 49°25' W 123°58'9 9.2
2015-Mar-21 13:34N 49°20' W 123°47'10 9.8
2015-Mar-21 12:33N 49°13' W 123°36'  
Track history (hours):
 
Tides and Currents Weather Stations Pressure Air Temp Water Temp Dewpoint Dewpoint Depression Visibility Wind Speed Wind Dir Waves Ship Positions

Pacific Titan

Owner: WESTERN TOWBOAT CO, SEATTLE, WA. More information available from US FCC via Universal Licensing System and Coast Guard Vessel Documentation Center.

Last reported at 2015-Mar-31 12:33 UTC. Time now 2015-Mar-31 12:43 UTC.
Position N 49°14' W 123°38'.

Type: Tow > 200 m length. MMSI: 338855000.

Date/timePositionNaut miles runAvg speedWind from/ knotsBaromVisibWave heightAir tempDewpointWater temp
2015-Mar-31 12:33N 49°14' W 123°38'10 9.6
2015-Mar-31 11:33N 49°20' W 123°48'10 9.6
2015-Mar-31 10:33N 49°26' W 124°01'10 9.5
2015-Mar-31 09:33N 49°31' W 124°13'10 9.6
2015-Mar-31 08:33N 49°35' W 124°26'10 9.5
2015-Mar-31 07:28N 49°42' W 124°39'8 9.1
2015-Mar-31 06:33N 49°47' W 124°49'10 9.8
2015-Mar-31 05:30N 49°54' W 125°01'81 7.3
2015-Mar-30 18:20N 50°38' W 126°48'7 8.1
2015-Mar-30 17:31N 50°42' W 126°56'9 8.6
2015-Mar-30 16:31N 50°46' W 127°08'8 7.9
2015-Mar-30 15:33N 50°51' W 127°17'8 7.8
2015-Mar-30 14:33N 50°56' W 127°26'7 7.3
2015-Mar-30 13:33N 50°60' W 127°36'6 5.7
2015-Mar-30 12:34N 51°04' W 127°42'6 5.9
2015-Mar-30 11:32N 51°08' W 127°49'14 6.5
2015-Mar-30 09:26N 51°22' W 127°53'8 8.9
2015-Mar-30 08:30N 51°30' W 127°52'  
2015-Mar-22 16:22N 51°31' W 127°52'8 8.4
2015-Mar-22 15:24N 51°22' W 127°53'7 8.7
2015-Mar-22 14:33N 51°15' W 127°52'9 8.9
2015-Mar-22 13:33N 51°07' W 127°47'9 9.2
2015-Mar-22 12:33N 51°00' W 127°37'10 9.6
2015-Mar-22 11:33N 50°55' W 127°24'9 9.2
2015-Mar-22 10:33N 50°50' W 127°12'9 8.7
2015-Mar-22 09:33N 50°45' W 127°00'9 7.9
2015-Mar-22 08:28N 50°39' W 126°50'9 8.0
2015-Mar-22 07:21N 50°32' W 126°41'95 7.4
2015-Mar-21 18:28N 49°41' W 124°37'8 6.1
2015-Mar-21 17:10N 49°36' W 124°27'5 8.2
2015-Mar-21 16:31N 49°33' W 124°20'9 7.8
2015-Mar-21 15:26N 49°29' W 124°09'8 8.9
2015-Mar-21 14:33N 49°25' W 123°58'9 9.2
2015-Mar-21 13:34N 49°20' W 123°47'10 9.8
2015-Mar-21 12:33N 49°13' W 123°36'  

Dump ship's entire track history